Terminal Aerodrome Forecast
Issued by NWS Jackson, KY

Home | Current Version | Previous Version | Text Only | Print | Product List | Glossary Off
Versions: 1 2 3 4 5 6 7 8 9 10 11 12 13 14

000
FTUS43 KJKL 260300 AAA
TAFLOZ
TAF AMD
KLOZ 260300Z 2603/2624 21007KT P6SM VCSH BKN050
     FM260600 18003KT P6SM SCT040 BKN150
     FM261600 21009KT P6SM VCTS BKN040CB BKN250=

USA.gov is the U.S. government's official web portal to all federal, state and local government web resources and services.